sensor_id;sensor_type;location;lat;lon;timestamp;pressure;altitude;pressure_sealevel;temperature;humidity
11212;BME280;5663;50.864;12.096;2023-10-19T00:00:54;98005.00;;;8.05;70.57
11212;BME280;5663;50.864;12.096;2023-10-19T00:03:24;98007.41;;;8.08;70.68
11212;BME280;5663;50.864;12.096;2023-10-19T00:05:55;98000.28;;;8.11;71.13
11212;BME280;5663;50.864;12.096;2023-10-19T00:08:31;97991.41;;;8.15;70.81
11212;BME280;5663;50.864;12.096;2023-10-19T00:11:08;97986.03;;;8.19;71.04
11212;BME280;5663;50.864;12.096;2023-10-19T00:13:38;97990.16;;;8.21;71.03
11212;BME280;5663;50.864;12.096;2023-10-19T00:16:06;97996.09;;;8.23;70.97
11212;BME280;5663;50.864;12.096;2023-10-19T00:18:46;97981.50;;;8.22;71.91
11212;BME280;5663;50.864;12.096;2023-10-19T00:21:20;97969.44;;;8.21;72.21
11212;BME280;5663;50.864;12.096;2023-10-19T00:23:58;97966.97;;;8.20;71.87
11212;BME280;5663;50.864;12.096;2023-10-19T00:26:31;97956.09;;;8.14;72.03
11212;BME280;5663;50.864;12.096;2023-10-19T00:28:59;97955.59;;;8.22;71.87
11212;BME280;5663;50.864;12.096;2023-10-19T00:31:40;97953.44;;;8.29;72.46
11212;BME280;5663;50.864;12.096;2023-10-19T00:34:10;97946.28;;;8.32;72.80
11212;BME280;5663;50.864;12.096;2023-10-19T00:36:41;97935.94;;;8.32;73.08
11212;BME280;5663;50.864;12.096;2023-10-19T00:39:11;97927.97;;;8.35;72.67
11212;BME280;5663;50.864;12.096;2023-10-19T00:41:45;97933.72;;;8.41;72.72
11212;BME280;5663;50.864;12.096;2023-10-19T00:44:14;97926.88;;;8.39;73.21
11212;BME280;5663;50.864;12.096;2023-10-19T00:46:44;97925.94;;;8.41;73.82
11212;BME280;5663;50.864;12.096;2023-10-19T00:49:15;97922.53;;;8.40;74.18
11212;BME280;5663;50.864;12.096;2023-10-19T00:51:45;97935.78;;;8.48;73.55
11212;BME280;5663;50.864;12.096;2023-10-19T00:54:26;97924.22;;;8.54;73.47
11212;BME280;5663;50.864;12.096;2023-10-19T00:56:59;97918.63;;;8.60;73.76
11212;BME280;5663;50.864;12.096;2023-10-19T00:59:32;97907.13;;;8.64;73.98
11212;BME280;5663;50.864;12.096;2023-10-19T01:02:05;97878.59;;;8.51;73.87
11212;BME280;5663;50.864;12.096;2023-10-19T01:04:45;97897.19;;;8.71;73.67
11212;BME280;5663;50.864;12.096;2023-10-19T01:07:17;97895.22;;;8.74;74.03
11212;BME280;5663;50.864;12.096;2023-10-19T01:09:56;97892.41;;;8.77;73.72
11212;BME280;5663;50.864;12.096;2023-10-19T01:12:26;97879.66;;;8.74;73.90
11212;BME280;5663;50.864;12.096;2023-10-19T01:15:05;97889.41;;;8.83;74.18
11212;BME280;5663;50.864;12.096;2023-10-19T01:17:34;97867.72;;;8.84;74.09
11212;BME280;5663;50.864;12.096;2023-10-19T01:20:08;97874.28;;;8.90;73.97
11212;BME280;5663;50.864;12.096;2023-10-19T01:22:57;97873.22;;;8.93;74.34
11212;BME280;5663;50.864;12.096;2023-10-19T01:25:47;97864.28;;;8.97;74.49
11212;BME280;5663;50.864;12.096;2023-10-19T01:28:27;97864.91;;;9.00;74.07
11212;BME280;5663;50.864;12.096;2023-10-19T01:31:11;97861.19;;;9.04;74.24
11212;BME280;5663;50.864;12.096;2023-10-19T01:33:44;97853.31;;;9.06;74.23
11212;BME280;5663;50.864;12.096;2023-10-19T01:36:12;97863.56;;;9.07;74.68
11212;BME280;5663;50.864;12.096;2023-10-19T01:38:44;97850.41;;;9.10;74.37
11212;BME280;5663;50.864;12.096;2023-10-19T01:41:21;97846.75;;;9.13;74.54
11212;BME280;5663;50.864;12.096;2023-10-19T01:43:51;97844.16;;;9.13;74.34
11212;BME280;5663;50.864;12.096;2023-10-19T01:46:23;97840.41;;;9.17;74.57
11212;BME280;5663;50.864;12.096;2023-10-19T01:48:53;97804.78;;;8.95;74.93
11212;BME280;5663;50.864;12.096;2023-10-19T01:51:22;97832.31;;;9.22;74.63
11212;BME280;5663;50.864;12.096;2023-10-19T01:53:52;97834.69;;;9.25;74.46
11212;BME280;5663;50.864;12.096;2023-10-19T01:56:22;97817.59;;;9.22;74.92
11212;BME280;5663;50.864;12.096;2023-10-19T01:58:50;97810.72;;;9.21;74.56
11212;BME280;5663;50.864;12.096;2023-10-19T02:01:18;97819.66;;;9.30;74.61
11212;BME280;5663;50.864;12.096;2023-10-19T02:03:49;97827.09;;;9.34;74.78
11212;BME280;5663;50.864;12.096;2023-10-19T02:06:19;97809.56;;;9.25;75.01
11212;BME280;5663;50.864;12.096;2023-10-19T02:08:49;97820.00;;;9.36;75.01
11212;BME280;5663;50.864;12.096;2023-10-19T02:11:25;97820.00;;;9.36;74.92
11212;BME280;5663;50.864;12.096;2023-10-19T02:13:53;97814.81;;;9.36;75.63
11212;BME280;5663;50.864;12.096;2023-10-19T02:16:22;97801.03;;;9.36;75.92
11212;BME280;5663;50.864;12.096;2023-10-19T02:18:52;97803.63;;;9.36;75.79
11212;BME280;5663;50.864;12.096;2023-10-19T02:21:20;97751.63;;;9.13;75.82
11212;BME280;5663;50.864;12.096;2023-10-19T02:23:53;97778.13;;;9.30;76.07
11212;BME280;5663;50.864;12.096;2023-10-19T02:26:20;97798.09;;;9.41;76.27
11212;BME280;5663;50.864;12.096;2023-10-19T02:28:52;97788.47;;;9.43;76.21
11212;BME280;5663;50.864;12.096;2023-10-19T02:31:20;97779.53;;;9.47;76.42
11212;BME280;5663;50.864;12.096;2023-10-19T02:33:49;97782.81;;;9.49;76.53
11212;BME280;5663;50.864;12.096;2023-10-19T02:36:19;97774.94;;;9.50;76.39
11212;BME280;5663;50.864;12.096;2023-10-19T02:38:47;97773.88;;;9.53;76.63
11212;BME280;5663;50.864;12.096;2023-10-19T02:41:18;97772.00;;;9.55;76.60
11212;BME280;5663;50.864;12.096;2023-10-19T02:43:47;97771.06;;;9.56;76.81
11212;BME280;5663;50.864;12.096;2023-10-19T02:46:19;97773.53;;;9.57;76.98
11212;BME280;5663;50.864;12.096;2023-10-19T02:49:06;97762.03;;;9.61;77.00
11212;BME280;5663;50.864;12.096;2023-10-19T02:51:37;97753.28;;;9.62;76.90
11212;BME280;5663;50.864;12.096;2023-10-19T02:54:07;97745.38;;;9.64;77.26
11212;BME280;5663;50.864;12.096;2023-10-19T02:56:42;97750.34;;;9.67;77.11
11212;BME280;5663;50.864;12.096;2023-10-19T02:59:13;97745.16;;;9.67;77.74
11212;BME280;5663;50.864;12.096;2023-10-19T03:01:44;97730.41;;;9.68;77.60
11212;BME280;5663;50.864;12.096;2023-10-19T03:04:14;97729.38;;;9.70;77.87
11212;BME280;5663;50.864;12.096;2023-10-19T03:06:44;97717.31;;;9.69;78.11
11212;BME280;5663;50.864;12.096;2023-10-19T03:09:27;97723.94;;;9.73;78.02
11212;BME280;5663;50.864;12.096;2023-10-19T03:11:57;97690.84;;;9.53;78.37
11212;BME280;5663;50.864;12.096;2023-10-19T03:14:37;97704.47;;;9.68;78.44
11212;BME280;5663;50.864;12.096;2023-10-19T03:17:08;97700.09;;;9.68;78.33
11212;BME280;5663;50.864;12.096;2023-10-19T03:19:37;97715.47;;;9.82;78.42
11212;BME280;5663;50.864;12.096;2023-10-19T03:22:07;97710.28;;;9.82;78.73
11212;BME280;5663;50.864;12.096;2023-10-19T03:24:36;97719.72;;;9.83;79.18
11212;BME280;5663;50.864;12.096;2023-10-19T03:27:09;97711.81;;;9.85;78.85
11212;BME280;5663;50.864;12.096;2023-10-19T03:29:55;97701.41;;;9.85;79.31
11212;BME280;5663;50.864;12.096;2023-10-19T03:32:26;97697.56;;;9.91;79.32
11212;BME280;5663;50.864;12.096;2023-10-19T03:34:58;97687.88;;;9.93;79.32
11212;BME280;5663;50.864;12.096;2023-10-19T03:37:29;97668.84;;;9.81;79.40
11212;BME280;5663;50.864;12.096;2023-10-19T03:40:02;97683.06;;;9.99;79.49
11212;BME280;5663;50.864;12.096;2023-10-19T03:42:35;97688.25;;;9.99;79.62
11212;BME280;5663;50.864;12.096;2023-10-19T03:45:08;97681.75;;;10.05;79.63
11212;BME280;5663;50.864;12.096;2023-10-19T03:47:43;97679.16;;;10.05;79.67
11212;BME280;5663;50.864;12.096;2023-10-19T03:50:14;97684.00;;;10.09;79.72
11212;BME280;5663;50.864;12.096;2023-10-19T03:52:46;97668.31;;;10.11;79.67
11212;BME280;5663;50.864;12.096;2023-10-19T03:55:14;97668.19;;;10.12;79.68
11212;BME280;5663;50.864;12.096;2023-10-19T03:57:45;97661.94;;;10.15;79.96
11212;BME280;5663;50.864;12.096;2023-10-19T04:00:17;97651.31;;;10.18;80.06
11212;BME280;5663;50.864;12.096;2023-10-19T04:03:17;97660.75;;;10.19;80.30
11212;BME280;5663;50.864;12.096;2023-10-19T04:05:52;97666.63;;;10.21;79.86
11212;BME280;5663;50.864;12.096;2023-10-19T04:08:29;97634.78;;;10.08;80.17
11212;BME280;5663;50.864;12.096;2023-10-19T04:11:05;97646.13;;;10.18;80.40
11212;BME280;5663;50.864;12.096;2023-10-19T04:13:58;97635.72;;;10.18;80.74
11212;BME280;5663;50.864;12.096;2023-10-19T04:16:30;97559.34;;;9.65;80.59
11212;BME280;5663;50.864;12.096;2023-10-19T04:19:14;97631.81;;;10.12;80.68
11212;BME280;5663;50.864;12.096;2023-10-19T04:21:42;97639.25;;;10.17;80.86
11212;BME280;5663;50.864;12.096;2023-10-19T04:24:13;97635.97;;;10.15;80.76
11212;BME280;5663;50.864;12.096;2023-10-19T04:26:44;97623.44;;;10.20;80.77
11212;BME280;5663;50.864;12.096;2023-10-19T04:29:27;97631.94;;;10.22;80.74
11212;BME280;5663;50.864;12.096;2023-10-19T04:31:59;97603.50;;;10.09;80.64
11212;BME280;5663;50.864;12.096;2023-10-19T04:34:38;97620.59;;;10.23;80.62
11212;BME280;5663;50.864;12.096;2023-10-19T04:37:29;97622.38;;;10.23;81.10
11212;BME280;5663;50.864;12.096;2023-10-19T04:40:10;97620.59;;;10.23;80.43
11212;BME280;5663;50.864;12.096;2023-10-19T04:42:51;97612.63;;;10.26;80.44
11212;BME280;5663;50.864;12.096;2023-10-19T04:45:23;97611.03;;;10.24;80.59
11212;BME280;5663;50.864;12.096;2023-10-19T04:48:12;97607.41;;;10.26;80.37
11212;BME280;5663;50.864;12.096;2023-10-19T04:51:17;97597.22;;;10.23;80.34
11212;BME280;5663;50.864;12.096;2023-10-19T04:53:49;97591.94;;;10.25;80.42
11212;BME280;5663;50.864;12.096;2023-10-19T04:56:19;97589.91;;;10.28;80.39
11212;BME280;5663;50.864;12.096;2023-10-19T04:58:49;97551.06;;;10.04;80.46
11212;BME280;5663;50.864;12.096;2023-10-19T05:01:20;97586.63;;;10.26;80.55
11212;BME280;5663;50.864;12.096;2023-10-19T05:03:51;97581.44;;;10.26;80.47
11212;BME280;5663;50.864;12.096;2023-10-19T05:06:36;97565.47;;;10.20;80.46
11212;BME280;5663;50.864;12.096;2023-10-19T05:09:07;97570.09;;;10.27;80.42
11212;BME280;5663;50.864;12.096;2023-10-19T05:11:43;97570.09;;;10.27;80.73
11212;BME280;5663;50.864;12.096;2023-10-19T05:14:13;97551.88;;;10.16;80.74
11212;BME280;5663;50.864;12.096;2023-10-19T05:17:04;97565.84;;;10.26;80.91
11212;BME280;5663;50.864;12.096;2023-10-19T05:19:48;97565.63;;;10.29;80.87
11212;BME280;5663;50.864;12.096;2023-10-19T05:22:27;97569.13;;;10.28;81.24
11212;BME280;5663;50.864;12.096;2023-10-19T05:25:01;97562.66;;;10.34;80.83
11212;BME280;5663;50.864;12.096;2023-10-19T05:27:44;97562.53;;;10.35;80.77
11212;BME280;5663;50.864;12.096;2023-10-19T05:30:17;97566.66;;;10.38;80.83
11212;BME280;5663;50.864;12.096;2023-10-19T05:32:53;97562.28;;;10.39;80.71
11212;BME280;5663;50.864;12.096;2023-10-19T05:35:26;97559.44;;;10.42;81.08
11212;BME280;5663;50.864;12.096;2023-10-19T05:49:44;97572.16;;;10.45;81.51
11212;BME280;5663;50.864;12.096;2023-10-19T05:53:10;97567.47;;;10.50;81.49
11212;BME280;5663;50.864;12.096;2023-10-19T06:06:37;97570.00;;;10.61;81.42
11212;BME280;5663;50.864;12.096;2023-10-19T06:09:05;97588.44;;;10.69;81.23
11212;BME280;5663;50.864;12.096;2023-10-19T06:12:09;97576.13;;;10.71;81.38
11212;BME280;5663;50.864;12.096;2023-10-19T06:14:39;97580.28;;;10.74;81.48
11212;BME280;5663;50.864;12.096;2023-10-19T06:17:26;97579.44;;;10.73;81.48
11212;BME280;5663;50.864;12.096;2023-10-19T06:19:57;97572.56;;;10.72;81.51
11212;BME280;5663;50.864;12.096;2023-10-19T06:22:32;97583.91;;;10.82;81.60
11212;BME280;5663;50.864;12.096;2023-10-19T06:25:00;97587.06;;;10.86;81.73
11212;BME280;5663;50.864;12.096;2023-10-19T06:27:29;97547.31;;;10.63;81.60
11212;BME280;5663;50.864;12.096;2023-10-19T06:29:57;97586.69;;;10.91;81.91
11212;BME280;5663;50.864;12.096;2023-10-19T06:32:27;97589.97;;;10.93;81.91
11212;BME280;5663;50.864;12.096;2023-10-19T06:34:55;97579.84;;;10.90;81.82
11212;BME280;5663;50.864;12.096;2023-10-19T06:37:26;97603.69;;;10.95;82.16
11212;BME280;5663;50.864;12.096;2023-10-19T06:39:57;97592.47;;;10.94;82.13
11212;BME280;5663;50.864;12.096;2023-10-19T06:42:30;97587.97;;;10.96;82.18
11212;BME280;5663;50.864;12.096;2023-10-19T06:45:27;97601.31;;;11.03;82.03
11212;BME280;5663;50.864;12.096;2023-10-19T06:48:02;97599.66;;;11.02;82.13
11212;BME280;5663;50.864;12.096;2023-10-19T06:50:37;97583.59;;;10.97;82.32
11212;BME280;5663;50.864;12.096;2023-10-19T06:53:07;97561.19;;;10.84;82.25
11212;BME280;5663;50.864;12.096;2023-10-19T06:55:37;97593.94;;;11.08;82.29
11212;BME280;5663;50.864;12.096;2023-10-19T06:58:06;97592.06;;;11.10;82.54
11212;BME280;5663;50.864;12.096;2023-10-19T07:00:40;97593.00;;;11.09;82.64
11212;BME280;5663;50.864;12.096;2023-10-19T07:03:10;97586.72;;;11.12;82.77
11212;BME280;5663;50.864;12.096;2023-10-19T07:05:40;97583.88;;;11.15;82.82
11212;BME280;5663;50.864;12.096;2023-10-19T07:08:12;97598.16;;;11.20;82.83
11212;BME280;5663;50.864;12.096;2023-10-19T07:10:43;97604.50;;;11.27;82.67
11212;BME280;5663;50.864;12.096;2023-10-19T07:13:11;97561.34;;;11.04;82.71
11212;BME280;5663;50.864;12.096;2023-10-19T07:15:38;97605.66;;;11.34;82.53
11212;BME280;5663;50.864;12.096;2023-10-19T07:18:08;97591.56;;;11.37;82.56
11212;BME280;5663;50.864;12.096;2023-10-19T07:20:38;97584.31;;;11.41;82.96
11212;BME280;5663;50.864;12.096;2023-10-19T07:23:05;97582.41;;;11.43;82.71
11212;BME280;5663;50.864;12.096;2023-10-19T07:25:37;97543.69;;;11.28;82.67
11212;BME280;5663;50.864;12.096;2023-10-19T07:28:10;97578.47;;;11.48;82.80
11212;BME280;5663;50.864;12.096;2023-10-19T07:30:39;97542.06;;;11.27;83.03
11212;BME280;5663;50.864;12.096;2023-10-19T07:33:09;97578.06;;;11.53;82.79
11212;BME280;5663;50.864;12.096;2023-10-19T07:35:37;97563.56;;;11.50;83.17
11212;BME280;5663;50.864;12.096;2023-10-19T07:38:05;97578.06;;;11.53;83.17
11212;BME280;5663;50.864;12.096;2023-10-19T07:40:35;97588.00;;;11.59;82.96
11212;BME280;5663;50.864;12.096;2023-10-19T07:43:04;97579.94;;;11.62;82.71
11212;BME280;5663;50.864;12.096;2023-10-19T07:45:34;97539.63;;;11.35;82.52
11212;BME280;5663;50.864;12.096;2023-10-19T07:48:03;97590.78;;;11.67;82.54
11212;BME280;5663;50.864;12.096;2023-10-19T07:50:40;97593.13;;;11.70;82.46
11212;BME280;5663;50.864;12.096;2023-10-19T07:53:11;97600.69;;;11.73;82.49
11212;BME280;5663;50.864;12.096;2023-10-19T07:55:41;97538.84;;;11.45;82.28
11212;BME280;5663;50.864;12.096;2023-10-19T07:58:09;97601.59;;;11.83;82.27
11212;BME280;5663;50.864;12.096;2023-10-19T08:00:44;97590.66;;;11.90;82.45
11212;BME280;5663;50.864;12.096;2023-10-19T08:03:15;97565.63;;;11.77;82.40
11212;BME280;5663;50.864;12.096;2023-10-19T08:05:44;97570.06;;;11.87;82.69
11212;BME280;5663;50.864;12.096;2023-10-19T08:08:12;97578.06;;;11.95;82.92
11212;BME280;5663;50.864;12.096;2023-10-19T08:10:40;97587.69;;;12.04;82.87
11212;BME280;5663;50.864;12.096;2023-10-19T08:13:08;97583.44;;;12.03;82.80
11212;BME280;5663;50.864;12.096;2023-10-19T08:15:39;97585.94;;;12.14;83.06
11212;BME280;5663;50.864;12.096;2023-10-19T08:18:08;97576.19;;;12.16;83.11
11212;BME280;5663;50.864;12.096;2023-10-19T08:20:41;97578.44;;;12.21;83.28
11212;BME280;5663;50.864;12.096;2023-10-19T08:23:12;97579.28;;;12.31;83.09
11212;BME280;5663;50.864;12.096;2023-10-19T08:25:43;97574.63;;;12.35;83.37
11212;BME280;5663;50.864;12.096;2023-10-19T08:28:13;97565.56;;;12.39;83.18
11212;BME280;5663;50.864;12.096;2023-10-19T08:30:42;97573.56;;;12.47;83.25
11212;BME280;5663;50.864;12.096;2023-10-19T08:33:14;97579.88;;;12.54;83.39
11212;BME280;5663;50.864;12.096;2023-10-19T08:35:41;97584.53;;;12.60;83.21
11212;BME280;5663;50.864;12.096;2023-10-19T08:38:10;97562.59;;;12.53;83.57
11212;BME280;5663;50.864;12.096;2023-10-19T08:40:38;97591.56;;;12.69;83.24
11212;BME280;5663;50.864;12.096;2023-10-19T08:43:07;97599.41;;;12.69;83.24
11212;BME280;5663;50.864;12.096;2023-10-19T08:45:41;97587.03;;;12.71;83.31
11212;BME280;5663;50.864;12.096;2023-10-19T08:48:09;97579.91;;;12.73;83.58
11212;BME280;5663;50.864;12.096;2023-10-19T08:50:39;97581.56;;;12.74;83.59
11212;BME280;5663;50.864;12.096;2023-10-19T08:53:08;97582.66;;;12.81;83.61
11212;BME280;5663;50.864;12.096;2023-10-19T08:55:36;97585.28;;;12.91;83.99
11212;BME280;5663;50.864;12.096;2023-10-19T08:58:04;97574.41;;;12.96;83.52
11212;BME280;5663;50.864;12.096;2023-10-19T09:00:46;97541.59;;;12.83;83.79
11212;BME280;5663;50.864;12.096;2023-10-19T09:03:15;97571.13;;;13.13;83.40
11212;BME280;5663;50.864;12.096;2023-10-19T09:05:46;97573.59;;;13.15;83.67
11212;BME280;5663;50.864;12.096;2023-10-19T09:08:15;97574.81;;;13.20;83.65
11212;BME280;5663;50.864;12.096;2023-10-19T09:10:44;97575.28;;;13.25;83.51
11212;BME280;5663;50.864;12.096;2023-10-19T09:13:16;97564.41;;;13.30;83.62
11212;BME280;5663;50.864;12.096;2023-10-19T09:15:47;97548.59;;;13.31;83.78
11212;BME280;5663;50.864;12.096;2023-10-19T09:18:21;97542.56;;;13.41;83.77
11212;BME280;5663;50.864;12.096;2023-10-19T09:20:52;97544.59;;;13.47;83.69
11212;BME280;5663;50.864;12.096;2023-10-19T09:23:22;97537.25;;;13.60;83.88
11212;BME280;5663;50.864;12.096;2023-10-19T09:25:51;97537.50;;;13.67;83.60
11212;BME280;5663;50.864;12.096;2023-10-19T09:28:22;97532.81;;;13.70;83.16
11212;BME280;5663;50.864;12.096;2023-10-19T09:30:52;97545.63;;;13.73;83.42
11212;BME280;5663;50.864;12.096;2023-10-19T09:33:22;97553.16;;;13.76;83.09
11212;BME280;5663;50.864;12.096;2023-10-19T09:35:53;97549.81;;;13.84;82.97
11212;BME280;5663;50.864;12.096;2023-10-19T09:38:22;97560.53;;;13.91;83.14
11212;BME280;5663;50.864;12.096;2023-10-19T09:40:53;97559.16;;;13.96;82.98
11212;BME280;5663;50.864;12.096;2023-10-19T09:43:25;97555.78;;;14.04;82.94
11212;BME280;5663;50.864;12.096;2023-10-19T09:45:57;97549.16;;;14.10;82.99
11212;BME280;5663;50.864;12.096;2023-10-19T09:48:26;97559.56;;;14.19;82.78
11212;BME280;5663;50.864;12.096;2023-10-19T09:50:57;97553.78;;;14.25;82.91
11212;BME280;5663;50.864;12.096;2023-10-19T09:53:27;97558.94;;;14.35;82.66
11212;BME280;5663;50.864;12.096;2023-10-19T09:55:58;97561.09;;;14.40;82.66
11212;BME280;5663;50.864;12.096;2023-10-19T09:58:30;97548.56;;;14.43;82.45
11212;BME280;5663;50.864;12.096;2023-10-19T10:01:01;97542.63;;;14.51;82.30
11212;BME280;5663;50.864;12.096;2023-10-19T10:03:45;97466.34;;;14.10;82.44
11212;BME280;5663;50.864;12.096;2023-10-19T10:06:27;97546.09;;;14.69;82.44
11212;BME280;5663;50.864;12.096;2023-10-19T10:08:56;97545.03;;;14.80;82.15
11212;BME280;5663;50.864;12.096;2023-10-19T10:11:25;97512.28;;;14.76;81.77
11212;BME280;5663;50.864;12.096;2023-10-19T10:13:56;97524.38;;;14.95;81.51
11212;BME280;5663;50.864;12.096;2023-10-19T10:16:26;97524.59;;;15.01;81.41
11212;BME280;5663;50.864;12.096;2023-10-19T10:18:56;97524.31;;;15.05;81.26
11212;BME280;5663;50.864;12.096;2023-10-19T10:21:28;97495.22;;;14.90;80.93
11212;BME280;5663;50.864;12.096;2023-10-19T10:23:58;97505.09;;;14.96;81.11
11212;BME280;5663;50.864;12.096;2023-10-19T10:26:27;97509.03;;;15.00;81.27
11212;BME280;5663;50.864;12.096;2023-10-19T10:29:11;97453.00;;;14.67;80.44
11212;BME280;5663;50.864;12.096;2023-10-19T10:31:41;97500.69;;;14.96;80.90
11212;BME280;5663;50.864;12.096;2023-10-19T10:34:12;97501.50;;;14.97;81.02
11212;BME280;5663;50.864;12.096;2023-10-19T10:37:01;97499.56;;;14.99;81.19
11212;BME280;5663;50.864;12.096;2023-10-19T10:39:30;97498.28;;;15.03;81.23
11212;BME280;5663;50.864;12.096;2023-10-19T10:41:59;97493.41;;;15.08;81.03
11212;BME280;5663;50.864;12.096;2023-10-19T10:44:40;97494.94;;;15.19;81.10
11212;BME280;5663;50.864;12.096;2023-10-19T10:47:09;97424.72;;;14.88;80.55
11212;BME280;5663;50.864;12.096;2023-10-19T10:49:48;97457.41;;;15.10;81.09
11212;BME280;5663;50.864;12.096;2023-10-19T10:52:27;97481.47;;;15.40;81.12
11212;BME280;5663;50.864;12.096;2023-10-19T10:54:57;97483.50;;;15.46;80.81
11212;BME280;5663;50.864;12.096;2023-10-19T10:57:31;97467.63;;;15.47;81.21
11212;BME280;5663;50.864;12.096;2023-10-19T11:00:07;97464.97;;;15.65;81.47
11212;BME280;5663;50.864;12.096;2023-10-19T11:02:46;97469.97;;;15.85;81.13
11212;BME280;5663;50.864;12.096;2023-10-19T11:05:18;97473.44;;;15.93;80.95
11212;BME280;5663;50.864;12.096;2023-10-19T11:08:06;97476.72;;;16.04;81.02
11212;BME280;5663;50.864;12.096;2023-10-19T11:10:36;97466.75;;;16.15;80.75
11212;BME280;5663;50.864;12.096;2023-10-19T11:13:07;97472.38;;;16.29;80.49
11212;BME280;5663;50.864;12.096;2023-10-19T11:15:37;97459.91;;;16.31;79.79
11212;BME280;5663;50.864;12.096;2023-10-19T11:18:05;97459.59;;;16.34;80.04
11212;BME280;5663;50.864;12.096;2023-10-19T11:20:36;97470.28;;;16.57;80.06
11212;BME280;5663;50.864;12.096;2023-10-19T11:23:05;97477.34;;;16.64;79.84
11212;BME280;5663;50.864;12.096;2023-10-19T11:25:33;97478.97;;;16.65;79.28
11212;BME280;5663;50.864;12.096;2023-10-19T11:28:01;97478.66;;;16.68;79.38
11212;BME280;5663;50.864;12.096;2023-10-19T11:30:44;97476.41;;;16.73;79.07
11212;BME280;5663;50.864;12.096;2023-10-19T11:33:16;97480.66;;;16.83;79.13
11212;BME280;5663;50.864;12.096;2023-10-19T11:35:47;97480.81;;;16.89;79.19
11212;BME280;5663;50.864;12.096;2023-10-19T11:38:21;97478.53;;;16.94;79.16
11212;BME280;5663;50.864;12.096;2023-10-19T11:40:49;97477.88;;;17.01;79.20
11212;BME280;5663;50.864;12.096;2023-10-19T11:43:20;97469.50;;;17.05;78.83
11212;BME280;5663;50.864;12.096;2023-10-19T11:45:48;97465.88;;;17.06;78.59
11212;BME280;5663;50.864;12.096;2023-10-19T11:48:15;97461.94;;;17.10;78.60
11212;BME280;5663;50.864;12.096;2023-10-19T11:50:46;97447.81;;;17.11;78.17
11212;BME280;5663;50.864;12.096;2023-10-19T11:53:14;97434.88;;;17.02;78.21
11212;BME280;5663;50.864;12.096;2023-10-19T11:55:44;97449.09;;;17.15;77.86
11212;BME280;5663;50.864;12.096;2023-10-19T11:58:14;97447.47;;;17.14;78.13
11212;BME280;5663;50.864;12.096;2023-10-19T12:00:44;97435.34;;;17.13;77.90
11212;BME280;5663;50.864;12.096;2023-10-19T12:03:12;97439.44;;;17.16;77.90
11212;BME280;5663;50.864;12.096;2023-10-19T12:05:41;97432.03;;;17.11;77.89
11212;BME280;5663;50.864;12.096;2023-10-19T12:08:10;97432.41;;;17.08;77.76
11212;BME280;5663;50.864;12.096;2023-10-19T12:10:38;97424.53;;;17.00;77.99
11212;BME280;5663;50.864;12.096;2023-10-19T12:13:07;97444.53;;;17.09;78.22
11212;BME280;5663;50.864;12.096;2023-10-19T12:15:36;97440.59;;;17.13;78.00
11212;BME280;5663;50.864;12.096;2023-10-19T12:18:04;97436.31;;;17.20;77.37
11212;BME280;5663;50.864;12.096;2023-10-19T12:20:36;97430.72;;;17.23;76.92
11212;BME280;5663;50.864;12.096;2023-10-19T12:23:14;97426.63;;;17.21;76.99
11212;BME280;5663;50.864;12.096;2023-10-19T12:25:42;97428.09;;;17.32;77.11
11212;BME280;5663;50.864;12.096;2023-10-19T12:28:12;97432.16;;;17.34;77.34
11212;BME280;5663;50.864;12.096;2023-10-19T12:30:41;97427.06;;;17.41;76.99
11212;BME280;5663;50.864;12.096;2023-10-19T12:33:11;97422.28;;;17.44;76.93
11212;BME280;5663;50.864;12.096;2023-10-19T12:35:45;97424.41;;;17.49;76.39
11212;BME280;5663;50.864;12.096;2023-10-19T12:38:17;97408.31;;;17.52;76.32
11212;BME280;5663;50.864;12.096;2023-10-19T12:40:48;97400.72;;;17.57;75.98
11212;BME280;5663;50.864;12.096;2023-10-19T12:43:19;97408.91;;;17.62;75.84
11212;BME280;5663;50.864;12.096;2023-10-19T12:45:49;97410.19;;;17.66;75.67
11212;BME280;5663;50.864;12.096;2023-10-19T12:48:23;97407.41;;;17.68;75.70
11212;BME280;5663;50.864;12.096;2023-10-19T12:50:58;97407.22;;;17.69;75.61
11212;BME280;5663;50.864;12.096;2023-10-19T12:53:25;97413.16;;;17.71;75.43
11212;BME280;5663;50.864;12.096;2023-10-19T12:55:54;97404.28;;;17.72;75.47
11212;BME280;5663;50.864;12.096;2023-10-19T12:58:23;97400.34;;;17.68;75.41
11212;BME280;5663;50.864;12.096;2023-10-19T13:00:54;97402.31;;;17.75;75.31
11212;BME280;5663;50.864;12.096;2023-10-19T13:03:24;97413.78;;;17.82;75.10
11212;BME280;5663;50.864;12.096;2023-10-19T13:05:53;97434.28;;;17.86;74.96
11212;BME280;5663;50.864;12.096;2023-10-19T13:08:24;97392.09;;;17.80;74.71
11212;BME280;5663;50.864;12.096;2023-10-19T13:10:53;97401.53;;;17.97;74.71
11212;BME280;5663;50.864;12.096;2023-10-19T13:13:25;97397.56;;;18.01;74.80
11212;BME280;5663;50.864;12.096;2023-10-19T13:15:53;97397.69;;;18.08;74.32
11212;BME280;5663;50.864;12.096;2023-10-19T13:18:21;97393.72;;;18.12;74.04
11212;BME280;5663;50.864;12.096;2023-10-19T13:20:53;97387.94;;;18.16;74.20
11212;BME280;5663;50.864;12.096;2023-10-19T13:23:23;97383.31;;;18.18;74.08
11212;BME280;5663;50.864;12.096;2023-10-19T13:25:51;97382.00;;;18.14;74.42
11212;BME280;5663;50.864;12.096;2023-10-19T13:28:29;97390.84;;;18.21;74.39
11212;BME280;5663;50.864;12.096;2023-10-19T13:30:57;97379.50;;;18.21;74.29
11212;BME280;5663;50.864;12.096;2023-10-19T13:33:26;97382.97;;;18.21;74.38
11212;BME280;5663;50.864;12.096;2023-10-19T13:35:54;97381.34;;;18.20;74.49
11212;BME280;5663;50.864;12.096;2023-10-19T13:38:22;97384.59;;;18.22;74.42
11212;BME280;5663;50.864;12.096;2023-10-19T13:40:50;97373.72;;;18.26;74.34
11212;BME280;5663;50.864;12.096;2023-10-19T13:43:19;97378.97;;;18.26;74.31
11212;BME280;5663;50.864;12.096;2023-10-19T13:45:50;97376.53;;;18.24;74.39
11212;BME280;5663;50.864;12.096;2023-10-19T13:48:19;97373.44;;;18.20;74.34
11212;BME280;5663;50.864;12.096;2023-10-19T13:50:48;97369.19;;;18.19;74.10
11212;BME280;5663;50.864;12.096;2023-10-19T13:53:19;97358.06;;;18.09;74.01